sensor_id;sensor_type;location;lat;lon;timestamp;temperature;humidity
22173;DHT22;11252;50.596;17.648;2022-10-16T00:01:38;13.30;92.20
22173;DHT22;11252;50.596;17.648;2022-10-16T00:04:06;13.20;92.20
22173;DHT22;11252;50.596;17.648;2022-10-16T00:06:33;13.20;92.20
22173;DHT22;11252;50.596;17.648;2022-10-16T00:09:01;13.20;92.20
22173;DHT22;11252;50.596;17.648;2022-10-16T00:11:31;13.20;92.20
22173;DHT22;11252;50.596;17.648;2022-10-16T00:14:07;13.20;92.20
22173;DHT22;11252;50.596;17.648;2022-10-16T00:16:35;13.20;92.20
22173;DHT22;11252;50.596;17.648;2022-10-16T00:19:03;13.20;92.20
22173;DHT22;11252;50.596;17.648;2022-10-16T00:21:33;13.20;92.20
22173;DHT22;11252;50.596;17.648;2022-10-16T00:24:05;13.10;92.20
22173;DHT22;11252;50.596;17.648;2022-10-16T00:26:33;13.10;92.20
22173;DHT22;11252;50.596;17.648;2022-10-16T00:29:02;13.10;92.20
22173;DHT22;11252;50.596;17.648;2022-10-16T00:31:30;13.10;92.20
22173;DHT22;11252;50.596;17.648;2022-10-16T00:33:58;13.20;92.20
22173;DHT22;11252;50.596;17.648;2022-10-16T00:36:25;13.20;92.20
22173;DHT22;11252;50.596;17.648;2022-10-16T00:38:55;13.20;92.20
22173;DHT22;11252;50.596;17.648;2022-10-16T00:41:24;13.10;92.20
22173;DHT22;11252;50.596;17.648;2022-10-16T00:43:55;13.10;92.20
22173;DHT22;11252;50.596;17.648;2022-10-16T00:46:25;13.10;92.20
22173;DHT22;11252;50.596;17.648;2022-10-16T00:49:18;13.00;92.20
22173;DHT22;11252;50.596;17.648;2022-10-16T00:51:53;13.10;92.20
22173;DHT22;11252;50.596;17.648;2022-10-16T00:54:26;13.00;92.20
22173;DHT22;11252;50.596;17.648;2022-10-16T00:56:56;13.00;92.20
22173;DHT22;11252;50.596;17.648;2022-10-16T00:59:34;13.00;92.20
22173;DHT22;11252;50.596;17.648;2022-10-16T01:02:04;12.90;92.20
22173;DHT22;11252;50.596;17.648;2022-10-16T01:04:37;12.90;92.20
22173;DHT22;11252;50.596;17.648;2022-10-16T01:10:27;12.90;92.20
22173;DHT22;11252;50.596;17.648;2022-10-16T01:13:09;12.90;92.20
22173;DHT22;11252;50.596;17.648;2022-10-16T01:16:05;12.90;92.20
22173;DHT22;11252;50.596;17.648;2022-10-16T01:18:47;12.90;92.20
22173;DHT22;11252;50.596;17.648;2022-10-16T01:21:28;13.00;92.20
22173;DHT22;11252;50.596;17.648;2022-10-16T01:35:29;13.00;92.20
22173;DHT22;11252;50.596;17.648;2022-10-16T01:40:39;13.10;92.20
22173;DHT22;11252;50.596;17.648;2022-10-16T01:43:19;13.10;92.20
22173;DHT22;11252;50.596;17.648;2022-10-16T01:45:47;13.10;92.20
22173;DHT22;11252;50.596;17.648;2022-10-16T01:48:18;13.20;92.20
22173;DHT22;11252;50.596;17.648;2022-10-16T01:51:00;13.20;92.20
22173;DHT22;11252;50.596;17.648;2022-10-16T01:53:29;13.20;92.20
22173;DHT22;11252;50.596;17.648;2022-10-16T01:55:59;13.20;92.20
22173;DHT22;11252;50.596;17.648;2022-10-16T01:58:29;13.20;92.20
22173;DHT22;11252;50.596;17.648;2022-10-16T02:01:03;13.20;92.20
22173;DHT22;11252;50.596;17.648;2022-10-16T02:03:33;13.30;92.20
22173;DHT22;11252;50.596;17.648;2022-10-16T02:06:01;13.30;92.20
22173;DHT22;11252;50.596;17.648;2022-10-16T02:08:30;13.40;92.20
22173;DHT22;11252;50.596;17.648;2022-10-16T02:10:59;13.50;92.20
22173;DHT22;11252;50.596;17.648;2022-10-16T02:13:30;13.50;92.20
22173;DHT22;11252;50.596;17.648;2022-10-16T02:16:00;13.50;92.20
22173;DHT22;11252;50.596;17.648;2022-10-16T02:18:27;13.50;92.20
22173;DHT22;11252;50.596;17.648;2022-10-16T02:26:16;13.50;92.20
22173;DHT22;11252;50.596;17.648;2022-10-16T02:28:51;13.40;92.20
22173;DHT22;11252;50.596;17.648;2022-10-16T02:31:25;13.50;92.20
22173;DHT22;11252;50.596;17.648;2022-10-16T02:33:57;13.50;92.20
22173;DHT22;11252;50.596;17.648;2022-10-16T02:36:26;13.50;92.20
22173;DHT22;11252;50.596;17.648;2022-10-16T02:38:54;13.50;92.20
22173;DHT22;11252;50.596;17.648;2022-10-16T02:41:23;13.50;92.20
22173;DHT22;11252;50.596;17.648;2022-10-16T02:43:50;13.60;92.20
22173;DHT22;11252;50.596;17.648;2022-10-16T02:46:18;13.60;92.20
22173;DHT22;11252;50.596;17.648;2022-10-16T02:48:46;13.60;92.20
22173;DHT22;11252;50.596;17.648;2022-10-16T02:51:13;13.60;92.20
22173;DHT22;11252;50.596;17.648;2022-10-16T02:53:41;13.60;92.20
22173;DHT22;11252;50.596;17.648;2022-10-16T02:56:08;13.50;92.20
22173;DHT22;11252;50.596;17.648;2022-10-16T02:58:36;13.50;92.20
22173;DHT22;11252;50.596;17.648;2022-10-16T03:01:03;13.50;92.20
22173;DHT22;11252;50.596;17.648;2022-10-16T03:03:31;13.50;92.20
22173;DHT22;11252;50.596;17.648;2022-10-16T03:05:58;13.50;92.20
22173;DHT22;11252;50.596;17.648;2022-10-16T03:08:25;13.40;92.20
22173;DHT22;11252;50.596;17.648;2022-10-16T03:10:52;13.50;92.20
22173;DHT22;11252;50.596;17.648;2022-10-16T03:13:20;13.50;92.20
22173;DHT22;11252;50.596;17.648;2022-10-16T03:15:47;13.50;92.20
22173;DHT22;11252;50.596;17.648;2022-10-16T03:18:15;13.60;92.20
22173;DHT22;11252;50.596;17.648;2022-10-16T03:20:43;13.60;92.20
22173;DHT22;11252;50.596;17.648;2022-10-16T03:23:11;13.60;92.20
22173;DHT22;11252;50.596;17.648;2022-10-16T03:25:39;13.60;92.20
22173;DHT22;11252;50.596;17.648;2022-10-16T03:28:06;13.70;92.20
22173;DHT22;11252;50.596;17.648;2022-10-16T03:30:34;13.70;92.20
22173;DHT22;11252;50.596;17.648;2022-10-16T03:33:02;13.70;92.20
22173;DHT22;11252;50.596;17.648;2022-10-16T03:35:31;13.70;92.20
22173;DHT22;11252;50.596;17.648;2022-10-16T03:38:00;13.70;92.20
22173;DHT22;11252;50.596;17.648;2022-10-16T03:40:27;13.70;92.20
22173;DHT22;11252;50.596;17.648;2022-10-16T03:42:54;13.60;92.20
22173;DHT22;11252;50.596;17.648;2022-10-16T03:45:24;13.70;92.20
22173;DHT22;11252;50.596;17.648;2022-10-16T03:47:52;13.60;92.20
22173;DHT22;11252;50.596;17.648;2022-10-16T03:50:19;13.70;92.20
22173;DHT22;11252;50.596;17.648;2022-10-16T03:52:47;13.70;92.20
22173;DHT22;11252;50.596;17.648;2022-10-16T03:55:15;13.70;92.20
22173;DHT22;11252;50.596;17.648;2022-10-16T03:57:42;13.70;92.20
22173;DHT22;11252;50.596;17.648;2022-10-16T04:00:10;13.70;92.20
22173;DHT22;11252;50.596;17.648;2022-10-16T04:02:38;13.70;92.20
22173;DHT22;11252;50.596;17.648;2022-10-16T04:05:06;13.70;92.20
22173;DHT22;11252;50.596;17.648;2022-10-16T04:07:34;13.70;92.20
22173;DHT22;11252;50.596;17.648;2022-10-16T04:10:01;13.70;92.20
22173;DHT22;11252;50.596;17.648;2022-10-16T04:12:28;13.70;92.20
22173;DHT22;11252;50.596;17.648;2022-10-16T04:14:56;13.70;92.20
22173;DHT22;11252;50.596;17.648;2022-10-16T04:17:23;13.70;92.20
22173;DHT22;11252;50.596;17.648;2022-10-16T04:19:51;13.70;92.20
22173;DHT22;11252;50.596;17.648;2022-10-16T04:22:19;13.70;92.20
22173;DHT22;11252;50.596;17.648;2022-10-16T04:24:46;13.70;92.20
22173;DHT22;11252;50.596;17.648;2022-10-16T04:27:14;13.80;92.20
22173;DHT22;11252;50.596;17.648;2022-10-16T04:29:41;13.80;92.20
22173;DHT22;11252;50.596;17.648;2022-10-16T04:32:09;13.80;92.20
22173;DHT22;11252;50.596;17.648;2022-10-16T04:34:38;13.70;92.20
22173;DHT22;11252;50.596;17.648;2022-10-16T04:37:06;13.80;92.20
22173;DHT22;11252;50.596;17.648;2022-10-16T04:39:33;13.80;92.20
22173;DHT22;11252;50.596;17.648;2022-10-16T04:42:01;13.80;92.20
22173;DHT22;11252;50.596;17.648;2022-10-16T04:44:29;13.80;92.20
22173;DHT22;11252;50.596;17.648;2022-10-16T04:46:56;13.90;92.20
22173;DHT22;11252;50.596;17.648;2022-10-16T04:49:24;13.90;92.20
22173;DHT22;11252;50.596;17.648;2022-10-16T04:51:52;13.90;92.20
22173;DHT22;11252;50.596;17.648;2022-10-16T04:54:19;13.90;92.20
22173;DHT22;11252;50.596;17.648;2022-10-16T04:56:46;13.90;92.20
22173;DHT22;11252;50.596;17.648;2022-10-16T04:59:15;13.90;92.20
22173;DHT22;11252;50.596;17.648;2022-10-16T05:01:43;13.90;92.20
22173;DHT22;11252;50.596;17.648;2022-10-16T05:04:11;13.90;92.20
22173;DHT22;11252;50.596;17.648;2022-10-16T05:06:38;13.90;92.20
22173;DHT22;11252;50.596;17.648;2022-10-16T05:09:06;13.90;92.20
22173;DHT22;11252;50.596;17.648;2022-10-16T05:11:35;14.00;92.20
22173;DHT22;11252;50.596;17.648;2022-10-16T05:14:03;14.00;92.20
22173;DHT22;11252;50.596;17.648;2022-10-16T05:16:30;13.90;92.20
22173;DHT22;11252;50.596;17.648;2022-10-16T05:18:58;13.90;92.20
22173;DHT22;11252;50.596;17.648;2022-10-16T05:21:45;14.00;92.20
22173;DHT22;11252;50.596;17.648;2022-10-16T05:24:13;14.00;92.20
22173;DHT22;11252;50.596;17.648;2022-10-16T05:26:40;14.00;92.20
22173;DHT22;11252;50.596;17.648;2022-10-16T05:29:07;14.00;92.20
22173;DHT22;11252;50.596;17.648;2022-10-16T05:31:36;14.10;92.20
22173;DHT22;11252;50.596;17.648;2022-10-16T05:34:03;14.10;92.20
22173;DHT22;11252;50.596;17.648;2022-10-16T05:36:30;14.00;92.20
22173;DHT22;11252;50.596;17.648;2022-10-16T05:38:58;14.00;92.20
22173;DHT22;11252;50.596;17.648;2022-10-16T05:41:25;14.10;92.20
22173;DHT22;11252;50.596;17.648;2022-10-16T05:43:53;14.10;92.20
22173;DHT22;11252;50.596;17.648;2022-10-16T05:46:21;14.10;92.20
22173;DHT22;11252;50.596;17.648;2022-10-16T05:48:48;14.10;92.20
22173;DHT22;11252;50.596;17.648;2022-10-16T05:51:16;14.10;92.20
22173;DHT22;11252;50.596;17.648;2022-10-16T05:53:43;14.10;92.20
22173;DHT22;11252;50.596;17.648;2022-10-16T05:56:11;14.10;92.20
22173;DHT22;11252;50.596;17.648;2022-10-16T05:58:40;14.10;92.20
22173;DHT22;11252;50.596;17.648;2022-10-16T06:01:14;14.20;92.20
22173;DHT22;11252;50.596;17.648;2022-10-16T06:03:42;14.20;92.20
22173;DHT22;11252;50.596;17.648;2022-10-16T06:06:15;14.30;92.20
22173;DHT22;11252;50.596;17.648;2022-10-16T06:08:44;14.30;92.20
22173;DHT22;11252;50.596;17.648;2022-10-16T06:11:16;14.40;92.20
22173;DHT22;11252;50.596;17.648;2022-10-16T06:13:44;14.50;92.20
22173;DHT22;11252;50.596;17.648;2022-10-16T06:16:13;14.60;92.20
22173;DHT22;11252;50.596;17.648;2022-10-16T06:18:41;14.70;92.20
22173;DHT22;11252;50.596;17.648;2022-10-16T06:21:10;14.70;92.20
22173;DHT22;11252;50.596;17.648;2022-10-16T06:23:38;14.70;92.20
22173;DHT22;11252;50.596;17.648;2022-10-16T06:26:11;14.70;92.20
22173;DHT22;11252;50.596;17.648;2022-10-16T06:28:39;14.70;92.20
22173;DHT22;11252;50.596;17.648;2022-10-16T06:31:08;14.80;92.20
22173;DHT22;11252;50.596;17.648;2022-10-16T06:33:37;14.90;92.20
22173;DHT22;11252;50.596;17.648;2022-10-16T06:36:07;14.90;92.20
22173;DHT22;11252;50.596;17.648;2022-10-16T06:38:37;15.00;92.20
22173;DHT22;11252;50.596;17.648;2022-10-16T06:41:05;15.00;92.20
22173;DHT22;11252;50.596;17.648;2022-10-16T06:43:33;15.10;92.20
22173;DHT22;11252;50.596;17.648;2022-10-16T06:46:05;15.10;92.20
22173;DHT22;11252;50.596;17.648;2022-10-16T06:48:38;15.20;92.20
22173;DHT22;11252;50.596;17.648;2022-10-16T06:51:09;15.30;92.20
22173;DHT22;11252;50.596;17.648;2022-10-16T06:53:39;15.30;92.20
22173;DHT22;11252;50.596;17.648;2022-10-16T06:56:27;15.30;92.20
22173;DHT22;11252;50.596;17.648;2022-10-16T06:58:57;15.40;92.20
22173;DHT22;11252;50.596;17.648;2022-10-16T07:01:25;15.50;92.20
22173;DHT22;11252;50.596;17.648;2022-10-16T07:03:55;15.60;92.20
22173;DHT22;11252;50.596;17.648;2022-10-16T07:06:25;15.70;92.20
22173;DHT22;11252;50.596;17.648;2022-10-16T07:08:53;15.80;92.20
22173;DHT22;11252;50.596;17.648;2022-10-16T07:11:23;15.80;92.20
22173;DHT22;11252;50.596;17.648;2022-10-16T07:13:51;15.80;92.20
22173;DHT22;11252;50.596;17.648;2022-10-16T07:16:27;15.80;92.20
22173;DHT22;11252;50.596;17.648;2022-10-16T07:19:01;15.90;92.20
22173;DHT22;11252;50.596;17.648;2022-10-16T07:21:33;15.90;92.20
22173;DHT22;11252;50.596;17.648;2022-10-16T07:24:06;16.00;92.20
22173;DHT22;11252;50.596;17.648;2022-10-16T07:26:36;16.10;92.20
22173;DHT22;11252;50.596;17.648;2022-10-16T07:29:14;16.10;92.20
22173;DHT22;11252;50.596;17.648;2022-10-16T07:31:43;16.20;92.20
22173;DHT22;11252;50.596;17.648;2022-10-16T07:34:12;16.30;92.20
22173;DHT22;11252;50.596;17.648;2022-10-16T07:36:41;16.40;92.20
22173;DHT22;11252;50.596;17.648;2022-10-16T07:39:13;16.50;92.20
22173;DHT22;11252;50.596;17.648;2022-10-16T07:41:41;16.60;92.20
22173;DHT22;11252;50.596;17.648;2022-10-16T07:44:08;16.70;92.20
22173;DHT22;11252;50.596;17.648;2022-10-16T07:46:36;16.80;92.20
22173;DHT22;11252;50.596;17.648;2022-10-16T07:49:03;16.90;92.20
22173;DHT22;11252;50.596;17.648;2022-10-16T07:51:31;17.00;92.20
22173;DHT22;11252;50.596;17.648;2022-10-16T07:53:58;17.10;92.20
22173;DHT22;11252;50.596;17.648;2022-10-16T07:56:26;17.20;92.20
22173;DHT22;11252;50.596;17.648;2022-10-16T07:58:54;17.30;92.20
22173;DHT22;11252;50.596;17.648;2022-10-16T08:01:21;17.40;92.20
22173;DHT22;11252;50.596;17.648;2022-10-16T08:03:50;17.60;92.20
22173;DHT22;11252;50.596;17.648;2022-10-16T08:06:21;17.70;92.20
22173;DHT22;11252;50.596;17.648;2022-10-16T08:08:55;17.90;92.20
22173;DHT22;11252;50.596;17.648;2022-10-16T08:11:23;18.10;92.20
22173;DHT22;11252;50.596;17.648;2022-10-16T08:13:53;18.50;92.20
22173;DHT22;11252;50.596;17.648;2022-10-16T08:16:23;19.00;92.20
22173;DHT22;11252;50.596;17.648;2022-10-16T08:18:51;19.20;92.20
22173;DHT22;11252;50.596;17.648;2022-10-16T08:21:22;19.10;92.20
22173;DHT22;11252;50.596;17.648;2022-10-16T08:23:53;19.20;92.20
22173;DHT22;11252;50.596;17.648;2022-10-16T08:26:26;19.20;92.20
22173;DHT22;11252;50.596;17.648;2022-10-16T08:28:54;18.90;92.20
22173;DHT22;11252;50.596;17.648;2022-10-16T08:31:22;18.80;92.20
22173;DHT22;11252;50.596;17.648;2022-10-16T08:33:50;18.80;92.20
22173;DHT22;11252;50.596;17.648;2022-10-16T08:36:19;18.90;92.20
22173;DHT22;11252;50.596;17.648;2022-10-16T08:38:49;19.10;92.20
22173;DHT22;11252;50.596;17.648;2022-10-16T08:50:12;19.40;92.20
22173;DHT22;11252;50.596;17.648;2022-10-16T08:52:43;19.20;92.20
22173;DHT22;11252;50.596;17.648;2022-10-16T08:55:49;19.00;92.20
22173;DHT22;11252;50.596;17.648;2022-10-16T08:58:22;19.00;92.20
22173;DHT22;11252;50.596;17.648;2022-10-16T09:00:54;18.90;92.20
22173;DHT22;11252;50.596;17.648;2022-10-16T09:09:46;18.90;92.20
22173;DHT22;11252;50.596;17.648;2022-10-16T09:15:19;19.00;92.20
22173;DHT22;11252;50.596;17.648;2022-10-16T09:18:17;19.00;92.20
22173;DHT22;11252;50.596;17.648;2022-10-16T09:23:44;19.30;92.20
22173;DHT22;11252;50.596;17.648;2022-10-16T09:26:14;19.20;92.20
22173;DHT22;11252;50.596;17.648;2022-10-16T09:28:44;19.20;92.20
22173;DHT22;11252;50.596;17.648;2022-10-16T09:31:24;19.10;92.20
22173;DHT22;11252;50.596;17.648;2022-10-16T09:33:57;19.20;92.20
22173;DHT22;11252;50.596;17.648;2022-10-16T09:36:28;19.30;92.20
22173;DHT22;11252;50.596;17.648;2022-10-16T09:39:07;19.30;92.20
22173;DHT22;11252;50.596;17.648;2022-10-16T09:41:43;19.30;92.20
22173;DHT22;11252;50.596;17.648;2022-10-16T09:44:29;19.40;92.20
22173;DHT22;11252;50.596;17.648;2022-10-16T09:47:11;19.40;92.20
22173;DHT22;11252;50.596;17.648;2022-10-16T09:49:55;19.60;92.20
22173;DHT22;11252;50.596;17.648;2022-10-16T09:52:25;19.80;92.20
22173;DHT22;11252;50.596;17.648;2022-10-16T09:55:01;19.80;92.20
22173;DHT22;11252;50.596;17.648;2022-10-16T09:57:29;19.80;92.20
22173;DHT22;11252;50.596;17.648;2022-10-16T09:59:59;19.90;92.20
22173;DHT22;11252;50.596;17.648;2022-10-16T10:04:58;19.80;92.20
22173;DHT22;11252;50.596;17.648;2022-10-16T10:07:34;19.80;92.20
22173;DHT22;11252;50.596;17.648;2022-10-16T10:10:05;19.80;92.20
22173;DHT22;11252;50.596;17.648;2022-10-16T10:12:33;19.70;92.20
22173;DHT22;11252;50.596;17.648;2022-10-16T10:15:11;19.70;92.20
22173;DHT22;11252;50.596;17.648;2022-10-16T10:17:53;19.70;92.20
22173;DHT22;11252;50.596;17.648;2022-10-16T10:20:28;19.70;92.20
22173;DHT22;11252;50.596;17.648;2022-10-16T10:22:55;19.60;92.20
22173;DHT22;11252;50.596;17.648;2022-10-16T10:25:40;19.60;92.20
22173;DHT22;11252;50.596;17.648;2022-10-16T10:29:18;19.70;92.20
22173;DHT22;11252;50.596;17.648;2022-10-16T10:34:53;19.90;92.20
22173;DHT22;11252;50.596;17.648;2022-10-16T10:45:46;20.50;90.90
22173;DHT22;11252;50.596;17.648;2022-10-16T10:48:51;20.70;90.70
22173;DHT22;11252;50.596;17.648;2022-10-16T10:51:31;20.70;89.60
22173;DHT22;11252;50.596;17.648;2022-10-16T11:03:06;20.80;88.20
22173;DHT22;11252;50.596;17.648;2022-10-16T11:08:27;20.80;88.90
22173;DHT22;11252;50.596;17.648;2022-10-16T11:11:07;20.70;88.40
22173;DHT22;11252;50.596;17.648;2022-10-16T11:13:38;20.50;88.50
22173;DHT22;11252;50.596;17.648;2022-10-16T11:16:20;20.30;89.30
22173;DHT22;11252;50.596;17.648;2022-10-16T11:21:43;20.30;89.40
22173;DHT22;11252;50.596;17.648;2022-10-16T11:24:20;20.40;89.70
22173;DHT22;11252;50.596;17.648;2022-10-16T11:26:51;20.60;89.50
22173;DHT22;11252;50.596;17.648;2022-10-16T11:29:27;20.80;89.50
22173;DHT22;11252;50.596;17.648;2022-10-16T11:32:06;21.00;88.30
22173;DHT22;11252;50.596;17.648;2022-10-16T11:34:44;21.10;87.90
22173;DHT22;11252;50.596;17.648;2022-10-16T11:37:25;21.30;87.50
22173;DHT22;11252;50.596;17.648;2022-10-16T11:40:02;21.80;85.80
22173;DHT22;11252;50.596;17.648;2022-10-16T11:42:40;22.70;83.90
22173;DHT22;11252;50.596;17.648;2022-10-16T11:48:00;22.70;83.90
22173;DHT22;11252;50.596;17.648;2022-10-16T11:56:25;21.30;86.40
22173;DHT22;11252;50.596;17.648;2022-10-16T11:58:57;21.00;87.50
22173;DHT22;11252;50.596;17.648;2022-10-16T12:01:43;20.80;87.80
22173;DHT22;11252;50.596;17.648;2022-10-16T12:04:33;20.70;89.30
22173;DHT22;11252;50.596;17.648;2022-10-16T12:07:10;20.60;89.20
22173;DHT22;11252;50.596;17.648;2022-10-16T12:09:40;20.50;89.60
22173;DHT22;11252;50.596;17.648;2022-10-16T12:12:40;20.50;89.40
22173;DHT22;11252;50.596;17.648;2022-10-16T12:18:24;20.40;89.80
22173;DHT22;11252;50.596;17.648;2022-10-16T12:20:56;20.40;90.10
22173;DHT22;11252;50.596;17.648;2022-10-16T12:23:26;20.20;89.90
22173;DHT22;11252;50.596;17.648;2022-10-16T12:25:55;20.20;90.20
22173;DHT22;11252;50.596;17.648;2022-10-16T12:28:36;20.10;90.10
22173;DHT22;11252;50.596;17.648;2022-10-16T12:31:07;20.10;90.00
22173;DHT22;11252;50.596;17.648;2022-10-16T12:33:40;20.10;90.30
22173;DHT22;11252;50.596;17.648;2022-10-16T12:38:56;20.30;89.90
22173;DHT22;11252;50.596;17.648;2022-10-16T12:41:33;20.90;89.00
22173;DHT22;11252;50.596;17.648;2022-10-16T12:44:03;21.60;87.10
22173;DHT22;11252;50.596;17.648;2022-10-16T12:51:41;21.80;85.20
22173;DHT22;11252;50.596;17.648;2022-10-16T12:54:14;21.60;86.40
22173;DHT22;11252;50.596;17.648;2022-10-16T12:59:49;23.10;83.50
22173;DHT22;11252;50.596;17.648;2022-10-16T13:05:18;23.30;82.30
22173;DHT22;11252;50.596;17.648;2022-10-16T13:11:05;23.30;82.50
22173;DHT22;11252;50.596;17.648;2022-10-16T13:16:16;24.20;81.00
22173;DHT22;11252;50.596;17.648;2022-10-16T13:22:15;25.70;77.50
22173;DHT22;11252;50.596;17.648;2022-10-16T13:30:11;24.30;80.30
22173;DHT22;11252;50.596;17.648;2022-10-16T13:32:39;23.90;81.20
22173;DHT22;11252;50.596;17.648;2022-10-16T13:35:21;23.40;81.50
22173;DHT22;11252;50.596;17.648;2022-10-16T13:37:50;22.90;83.10
22173;DHT22;11252;50.596;17.648;2022-10-16T13:40:21;22.60;84.00
22173;DHT22;11252;50.596;17.648;2022-10-16T13:42:53;22.40;84.80
22173;DHT22;11252;50.596;17.648;2022-10-16T13:45:25;22.60;84.80
22173;DHT22;11252;50.596;17.648;2022-10-16T13:48:06;23.00;84.10
22173;DHT22;11252;50.596;17.648;2022-10-16T13:50:36;23.50;82.60
22173;DHT22;11252;50.596;17.648;2022-10-16T13:53:12;23.80;81.40
22173;DHT22;11252;50.596;17.648;2022-10-16T13:55:40;23.60;81.40
22173;DHT22;11252;50.596;17.648;2022-10-16T13:58:12;22.90;82.90
22173;DHT22;11252;50.596;17.648;2022-10-16T14:00:57;22.40;84.70
22173;DHT22;11252;50.596;17.648;2022-10-16T14:03:26;21.90;85.80
22173;DHT22;11252;50.596;17.648;2022-10-16T14:05:59;21.40;87.50
22173;DHT22;11252;50.596;17.648;2022-10-16T14:08:30;21.20;88.00
22173;DHT22;11252;50.596;17.648;2022-10-16T14:11:00;21.00;88.70
22173;DHT22;11252;50.596;17.648;2022-10-16T14:13:43;21.00;89.20
22173;DHT22;11252;50.596;17.648;2022-10-16T14:16:18;20.80;89.60
22173;DHT22;11252;50.596;17.648;2022-10-16T14:21:24;20.80;90.50
22173;DHT22;11252;50.596;17.648;2022-10-16T14:23:53;21.10;90.10
22173;DHT22;11252;50.596;17.648;2022-10-16T14:26:24;21.60;88.00
22173;DHT22;11252;50.596;17.648;2022-10-16T14:29:13;21.60;87.80
22173;DHT22;11252;50.596;17.648;2022-10-16T14:31:42;21.60;87.90
22173;DHT22;11252;50.596;17.648;2022-10-16T14:34:36;21.50;88.10
22173;DHT22;11252;50.596;17.648;2022-10-16T14:37:29;21.60;87.50
22173;DHT22;11252;50.596;17.648;2022-10-16T14:39:57;21.60;87.30
22173;DHT22;11252;50.596;17.648;2022-10-16T14:42:25;21.70;86.60
22173;DHT22;11252;50.596;17.648;2022-10-16T14:44:54;21.70;86.80
22173;DHT22;11252;50.596;17.648;2022-10-16T14:47:24;21.90;86.40
22173;DHT22;11252;50.596;17.648;2022-10-16T14:49:54;22.20;85.80
22173;DHT22;11252;50.596;17.648;2022-10-16T14:52:24;22.30;85.50
22173;DHT22;11252;50.596;17.648;2022-10-16T14:54:52;22.30;85.50
22173;DHT22;11252;50.596;17.648;2022-10-16T14:57:27;22.10;85.80
22173;DHT22;11252;50.596;17.648;2022-10-16T14:59:56;21.60;87.30
22173;DHT22;11252;50.596;17.648;2022-10-16T15:02:34;21.20;88.30
22173;DHT22;11252;50.596;17.648;2022-10-16T15:05:18;21.00;89.30
22173;DHT22;11252;50.596;17.648;2022-10-16T15:07:55;20.70;90.20
22173;DHT22;11252;50.596;17.648;2022-10-16T15:10:24;20.50;90.80
22173;DHT22;11252;50.596;17.648;2022-10-16T15:12:53;20.40;91.30
22173;DHT22;11252;50.596;17.648;2022-10-16T15:15:37;20.20;91.90
22173;DHT22;11252;50.596;17.648;2022-10-16T15:18:05;20.00;92.20
22173;DHT22;11252;50.596;17.648;2022-10-16T15:20:37;19.80;92.20
22173;DHT22;11252;50.596;17.648;2022-10-16T15:23:17;19.70;92.20
22173;DHT22;11252;50.596;17.648;2022-10-16T15:25:47;19.50;92.20
22173;DHT22;11252;50.596;17.648;2022-10-16T15:28:18;19.40;92.20
22173;DHT22;11252;50.596;17.648;2022-10-16T15:30:48;19.30;92.20
22173;DHT22;11252;50.596;17.648;2022-10-16T15:33:22;19.20;92.20
22173;DHT22;11252;50.596;17.648;2022-10-16T15:35:51;19.10;92.20
22173;DHT22;11252;50.596;17.648;2022-10-16T15:38:21;19.00;92.20
22173;DHT22;11252;50.596;17.648;2022-10-16T15:40:49;19.00;92.20
22173;DHT22;11252;50.596;17.648;2022-10-16T15:43:16;18.90;92.20
22173;DHT22;11252;50.596;17.648;2022-10-16T15:46:02;18.90;92.20
22173;DHT22;11252;50.596;17.648;2022-10-16T15:48:31;18.80;92.20
22173;DHT22;11252;50.596;17.648;2022-10-16T15:50:59;18.80;92.20
22173;DHT22;11252;50.596;17.648;2022-10-16T15:53:27;18.70;92.20
22173;DHT22;11252;50.596;17.648;2022-10-16T15:55:54;18.70;92.20
22173;DHT22;11252;50.596;17.648;2022-10-16T15:58:22;18.60;92.20
22173;DHT22;11252;50.596;17.648;2022-10-16T16:00:59;18.60;92.20
22173;DHT22;11252;50.596;17.648;2022-10-16T16:03:28;18.60;92.20
22173;DHT22;11252;50.596;17.648;2022-10-16T16:05:56;18.50;92.20
22173;DHT22;11252;50.596;17.648;2022-10-16T16:08:24;18.50;92.20
22173;DHT22;11252;50.596;17.648;2022-10-16T16:11:09;18.40;92.20
22173;DHT22;11252;50.596;17.648;2022-10-16T16:13:37;18.30;92.20
22173;DHT22;11252;50.596;17.648;2022-10-16T16:16:07;18.20;92.20
22173;DHT22;11252;50.596;17.648;2022-10-16T16:18:36;18.20;92.20
22173;DHT22;11252;50.596;17.648;2022-10-16T16:21:04;18.10;92.20
22173;DHT22;11252;50.596;17.648;2022-10-16T16:23:32;18.00;92.20
22173;DHT22;11252;50.596;17.648;2022-10-16T16:26:21;18.00;92.20
22173;DHT22;11252;50.596;17.648;2022-10-16T16:28:54;17.90;92.20
22173;DHT22;11252;50.596;17.648;2022-10-16T16:31:27;17.90;92.20
22173;DHT22;11252;50.596;17.648;2022-10-16T16:33:56;17.80;92.20
22173;DHT22;11252;50.596;17.648;2022-10-16T16:36:25;17.80;92.20
22173;DHT22;11252;50.596;17.648;2022-10-16T16:38:52;17.80;92.20
22173;DHT22;11252;50.596;17.648;2022-10-16T16:41:23;17.80;92.20
22173;DHT22;11252;50.596;17.648;2022-10-16T16:43:52;17.80;92.20
22173;DHT22;11252;50.596;17.648;2022-10-16T16:46:21;17.70;92.20
22173;DHT22;11252;50.596;17.648;2022-10-16T16:48:51;17.70;92.20
22173;DHT22;11252;50.596;17.648;2022-10-16T16:51:20;17.60;92.20
22173;DHT22;11252;50.596;17.648;2022-10-16T16:53:50;17.60;92.20
22173;DHT22;11252;50.596;17.648;2022-10-16T16:56:18;17.50;92.20
22173;DHT22;11252;50.596;17.648;2022-10-16T16:58:48;17.40;92.20
22173;DHT22;11252;50.596;17.648;2022-10-16T17:01:16;17.40;92.20
22173;DHT22;11252;50.596;17.648;2022-10-16T17:03:49;17.30;92.20
22173;DHT22;11252;50.596;17.648;2022-10-16T17:06:23;17.30;92.20
22173;DHT22;11252;50.596;17.648;2022-10-16T17:08:50;17.20;92.20
22173;DHT22;11252;50.596;17.648;2022-10-16T17:11:23;17.20;92.20
22173;DHT22;11252;50.596;17.648;2022-10-16T17:13:51;17.20;92.20
22173;DHT22;11252;50.596;17.648;2022-10-16T17:16:25;17.20;92.20
22173;DHT22;11252;50.596;17.648;2022-10-16T17:18:53;17.20;92.20
22173;DHT22;11252;50.596;17.648;2022-10-16T17:21:20;17.10;92.20
22173;DHT22;11252;50.596;17.648;2022-10-16T17:23:51;17.00;92.20
22173;DHT22;11252;50.596;17.648;2022-10-16T17:26:22;16.90;92.20
22173;DHT22;11252;50.596;17.648;2022-10-16T17:28:55;16.80;92.20
22173;DHT22;11252;50.596;17.648;2022-10-16T17:31:28;16.80;92.20
22173;DHT22;11252;50.596;17.648;2022-10-16T17:34:02;16.80;92.20
22173;DHT22;11252;50.596;17.648;2022-10-16T17:36:33;16.70;92.20
22173;DHT22;11252;50.596;17.648;2022-10-16T17:39:05;16.60;92.20